30PA weather

Kings Airport
Schwenksville, Pennsylvania, United States

Public forecast

Using degrees Fahrenheit for public forecast. Weather courtesy of forecast.io.

METAR (pilot weather report)

Closest report is Heritage Field, 5.8 nm (10.7 km) WSW. Retrieved 2019/07/18 00:54 UTC (45 minutes ago):

KPTW 180054Z AUTO 00000KT 6SM -RA BR FEW080 SCT100 BKN120 22/22 A2993 RMK AO2 LTG DSNT E-S TSE21 SLP132 P0024 T02220222 $

TAF (pilot weather forecast)

Forecast is more than 12 hours old.

Closest forecast is Northeast Philadelphia Airport, 22.5 nm (41.7 km) ESE. Retrieved 2019/07/17 00:24 UTC (1 day ago):

TAF KPNE 172323Z 1800/1824 20006KT P6SM SHRA OVC060 TEMPO 1800/1804 VRB20G30KT 2SM +TSRA OVC015CB FM180500 21005KT P6SM OVC045 FM181200 20005KT P6SM OVC025 FM181600 23006KT 6SM SHRA BKN025 FM182000 26007KT 6SM SHRA BKN040